sensor_id;sensor_type;location;lat;lon;timestamp;pressure;altitude;pressure_sealevel;temperature;humidity
10688;BME280;5392;42.688;23.298;2023-03-20T00:01:57;57405.06;;;-144.48;100.00
10688;BME280;5392;42.688;23.298;2023-03-20T00:04:24;57407.16;;;-144.48;100.00
10688;BME280;5392;42.688;23.298;2023-03-20T00:06:51;57388.38;;;-144.48;100.00
10688;BME280;5392;42.688;23.298;2023-03-20T00:09:18;57421.78;;;-144.48;100.00
10688;BME280;5392;42.688;23.298;2023-03-20T00:11:49;57375.84;;;-144.48;100.00
10688;BME280;5392;42.688;23.298;2023-03-20T00:14:18;57400.91;;;-144.48;100.00
10688;BME280;5392;42.688;23.298;2023-03-20T00:16:47;57415.50;;;-144.48;100.00
10688;BME280;5392;42.688;23.298;2023-03-20T00:19:15;57413.44;;;-144.48;100.00
10688;BME280;5392;42.688;23.298;2023-03-20T00:21:43;57373.75;;;-144.48;100.00
10688;BME280;5392;42.688;23.298;2023-03-20T00:24:12;57384.19;;;-144.48;100.00
10688;BME280;5392;42.688;23.298;2023-03-20T00:26:39;57371.69;;;-144.48;100.00
10688;BME280;5392;42.688;23.298;2023-03-20T00:29:06;57390.47;;;-144.48;100.00
10688;BME280;5392;42.688;23.298;2023-03-20T00:31:37;57373.75;;;-144.48;100.00
10688;BME280;5392;42.688;23.298;2023-03-20T00:34:11;57440.56;;;-144.48;100.00
10688;BME280;5392;42.688;23.298;2023-03-20T00:36:38;57417.59;;;-144.48;100.00
10688;BME280;5392;42.688;23.298;2023-03-20T00:39:05;57411.34;;;-144.48;100.00
10688;BME280;5392;42.688;23.298;2023-03-20T00:46:54;57415.50;;;-144.48;100.00
10688;BME280;5392;42.688;23.298;2023-03-20T00:49:28;57348.72;;;-144.48;100.00
10688;BME280;5392;42.688;23.298;2023-03-20T00:51:55;57359.16;;;-144.48;100.00
10688;BME280;5392;42.688;23.298;2023-03-20T00:54:23;57384.19;;;-144.48;100.00
10688;BME280;5392;42.688;23.298;2023-03-20T00:56:55;57415.50;;;-144.48;100.00
10688;BME280;5392;42.688;23.298;2023-03-20T00:59:28;57392.56;;;-144.48;100.00
10688;BME280;5392;42.688;23.298;2023-03-20T01:01:57;57390.47;;;-144.48;100.00
10688;BME280;5392;42.688;23.298;2023-03-20T01:04:29;57425.94;;;-144.48;100.00
10688;BME280;5392;42.688;23.298;2023-03-20T01:06:57;57415.50;;;-144.48;100.00
10688;BME280;5392;42.688;23.298;2023-03-20T01:09:23;57382.13;;;-144.48;100.00
10688;BME280;5392;42.688;23.298;2023-03-20T01:11:50;57384.19;;;-144.48;100.00
10688;BME280;5392;42.688;23.298;2023-03-20T01:14:19;57388.38;;;-144.48;100.00
10688;BME280;5392;42.688;23.298;2023-03-20T01:16:46;57384.19;;;-144.48;100.00
10688;BME280;5392;42.688;23.298;2023-03-20T01:19:13;57419.69;;;-144.48;100.00
10688;BME280;5392;42.688;23.298;2023-03-20T01:21:41;57346.63;;;-144.48;100.00
10688;BME280;5392;42.688;23.298;2023-03-20T01:24:08;57388.38;;;-144.48;100.00
10688;BME280;5392;42.688;23.298;2023-03-20T01:26:39;57403.00;;;-144.48;100.00
10688;BME280;5392;42.688;23.298;2023-03-20T01:29:21;57411.34;;;-144.48;100.00
10688;BME280;5392;42.688;23.298;2023-03-20T01:31:50;57371.69;;;-144.48;100.00
10688;BME280;5392;42.688;23.298;2023-03-20T01:34:17;57409.25;;;-144.48;100.00
10688;BME280;5392;42.688;23.298;2023-03-20T01:36:48;57417.59;;;-144.48;100.00
10688;BME280;5392;42.688;23.298;2023-03-20T01:39:15;57403.00;;;-144.48;100.00
10688;BME280;5392;42.688;23.298;2023-03-20T01:41:43;57428.03;;;-144.48;100.00
10688;BME280;5392;42.688;23.298;2023-03-20T01:44:36;57392.56;;;-144.48;100.00
10688;BME280;5392;42.688;23.298;2023-03-20T01:47:13;57375.84;;;-144.48;100.00
10688;BME280;5392;42.688;23.298;2023-03-20T01:53:07;57380.03;;;-144.48;100.00
10688;BME280;5392;42.688;23.298;2023-03-20T01:55:34;57392.56;;;-144.48;100.00
10688;BME280;5392;42.688;23.298;2023-03-20T01:58:06;57413.44;;;-144.48;100.00
10688;BME280;5392;42.688;23.298;2023-03-20T02:00:34;57359.16;;;-144.48;100.00
10688;BME280;5392;42.688;23.298;2023-03-20T02:03:03;57377.94;;;-144.48;100.00
10688;BME280;5392;42.688;23.298;2023-03-20T02:05:31;57403.00;;;-144.48;100.00
10688;BME280;5392;42.688;23.298;2023-03-20T02:08:07;57365.41;;;-144.48;100.00
10688;BME280;5392;42.688;23.298;2023-03-20T02:10:36;57394.63;;;-144.48;100.00
10688;BME280;5392;42.688;23.298;2023-03-20T02:13:03;57415.50;;;-144.48;100.00
10688;BME280;5392;42.688;23.298;2023-03-20T02:15:31;57409.25;;;-144.48;100.00
10688;BME280;5392;42.688;23.298;2023-03-20T02:17:58;57405.06;;;-144.48;100.00
10688;BME280;5392;42.688;23.298;2023-03-20T02:20:33;57411.34;;;-144.48;100.00
10688;BME280;5392;42.688;23.298;2023-03-20T02:25:57;57388.38;;;-144.48;100.00
10688;BME280;5392;42.688;23.298;2023-03-20T02:45:23;57403.00;;;-144.48;100.00
10688;BME280;5392;42.688;23.298;2023-03-20T02:48:12;57398.81;;;-144.48;100.00
10688;BME280;5392;42.688;23.298;2023-03-20T02:50:58;57446.81;;;-144.48;100.00
10688;BME280;5392;42.688;23.298;2023-03-20T02:53:50;57380.03;;;-144.48;100.00
10688;BME280;5392;42.688;23.298;2023-03-20T03:01:30;57384.19;;;-144.48;100.00
10688;BME280;5392;42.688;23.298;2023-03-20T03:04:03;57361.25;;;-144.48;100.00
10688;BME280;5392;42.688;23.298;2023-03-20T03:06:33;57386.28;;;-144.48;100.00
10688;BME280;5392;42.688;23.298;2023-03-20T03:09:10;57380.03;;;-144.48;100.00
10688;BME280;5392;42.688;23.298;2023-03-20T03:11:44;57396.72;;;-144.48;100.00
10688;BME280;5392;42.688;23.298;2023-03-20T03:14:18;57367.50;;;-144.48;100.00
10688;BME280;5392;42.688;23.298;2023-03-20T03:16:48;57371.69;;;-144.48;100.00
10688;BME280;5392;42.688;23.298;2023-03-20T03:19:20;57369.59;;;-144.48;100.00
10688;BME280;5392;42.688;23.298;2023-03-20T03:21:49;57394.63;;;-144.48;100.00
10688;BME280;5392;42.688;23.298;2023-03-20T03:24:36;57396.72;;;-144.48;100.00
10688;BME280;5392;42.688;23.298;2023-03-20T03:27:37;57342.47;;;-144.48;100.00
10688;BME280;5392;42.688;23.298;2023-03-20T03:32:50;57386.28;;;-144.48;100.00
10688;BME280;5392;42.688;23.298;2023-03-20T03:35:24;57407.16;;;-144.48;100.00
10688;BME280;5392;42.688;23.298;2023-03-20T03:38:27;57440.56;;;-144.48;100.00
10688;BME280;5392;42.688;23.298;2023-03-20T03:43:36;57382.13;;;-144.48;100.00
10688;BME280;5392;42.688;23.298;2023-03-20T03:46:13;57392.56;;;-144.48;100.00
10688;BME280;5392;42.688;23.298;2023-03-20T03:48:47;57380.03;;;-144.48;100.00
10688;BME280;5392;42.688;23.298;2023-03-20T03:51:28;57438.47;;;-144.48;100.00
10688;BME280;5392;42.688;23.298;2023-03-20T03:54:00;57380.03;;;-144.48;100.00
10688;BME280;5392;42.688;23.298;2023-03-20T03:56:31;57419.69;;;-144.48;100.00
10688;BME280;5392;42.688;23.298;2023-03-20T03:59:05;57327.84;;;-144.48;100.00
10688;BME280;5392;42.688;23.298;2023-03-20T04:01:34;57375.84;;;-144.48;100.00
10688;BME280;5392;42.688;23.298;2023-03-20T04:04:06;57405.06;;;-144.48;100.00
10688;BME280;5392;42.688;23.298;2023-03-20T04:06:34;57369.59;;;-144.48;100.00
10688;BME280;5392;42.688;23.298;2023-03-20T04:09:01;57377.94;;;-144.48;100.00
10688;BME280;5392;42.688;23.298;2023-03-20T04:11:28;57367.50;;;-144.48;100.00
10688;BME280;5392;42.688;23.298;2023-03-20T04:13:55;57390.47;;;-144.48;100.00
10688;BME280;5392;42.688;23.298;2023-03-20T04:16:23;57428.03;;;-144.48;100.00
10688;BME280;5392;42.688;23.298;2023-03-20T04:18:50;57392.56;;;-144.48;100.00
10688;BME280;5392;42.688;23.298;2023-03-20T04:21:17;57375.84;;;-144.48;100.00
10688;BME280;5392;42.688;23.298;2023-03-20T04:23:44;57396.72;;;-144.48;100.00
10688;BME280;5392;42.688;23.298;2023-03-20T04:26:11;57384.19;;;-144.48;100.00
10688;BME280;5392;42.688;23.298;2023-03-20T04:28:38;57384.19;;;-144.48;100.00
10688;BME280;5392;42.688;23.298;2023-03-20T04:31:05;57400.91;;;-144.48;100.00
10688;BME280;5392;42.688;23.298;2023-03-20T04:33:31;57407.16;;;-144.48;100.00
10688;BME280;5392;42.688;23.298;2023-03-20T04:35:58;57388.38;;;-144.48;100.00
10688;BME280;5392;42.688;23.298;2023-03-20T04:38:25;57394.63;;;-144.48;100.00
10688;BME280;5392;42.688;23.298;2023-03-20T04:40:52;57388.38;;;-144.48;100.00
10688;BME280;5392;42.688;23.298;2023-03-20T04:43:19;57396.72;;;-144.48;100.00
10688;BME280;5392;42.688;23.298;2023-03-20T04:45:46;57361.25;;;-144.48;100.00
10688;BME280;5392;42.688;23.298;2023-03-20T04:48:12;57384.19;;;-144.48;100.00
10688;BME280;5392;42.688;23.298;2023-03-20T04:50:39;57403.00;;;-144.48;100.00
10688;BME280;5392;42.688;23.298;2023-03-20T04:53:06;57388.38;;;-144.48;100.00
10688;BME280;5392;42.688;23.298;2023-03-20T04:55:32;57390.47;;;-144.48;100.00
10688;BME280;5392;42.688;23.298;2023-03-20T04:57:59;57342.47;;;-144.48;100.00
10688;BME280;5392;42.688;23.298;2023-03-20T05:00:26;57398.81;;;-144.48;100.00
10688;BME280;5392;42.688;23.298;2023-03-20T05:02:53;57405.06;;;-144.48;100.00
10688;BME280;5392;42.688;23.298;2023-03-20T05:05:19;57396.72;;;-144.48;100.00
10688;BME280;5392;42.688;23.298;2023-03-20T05:07:46;57371.69;;;-144.48;96.67
10688;BME280;5392;42.688;23.298;2023-03-20T05:10:13;57388.38;;;-144.48;93.44
10688;BME280;5392;42.688;23.298;2023-03-20T05:12:39;57432.22;;;-144.48;92.79
10688;BME280;5392;42.688;23.298;2023-03-20T05:15:07;57386.28;;;-144.48;92.30
10688;BME280;5392;42.688;23.298;2023-03-20T05:17:33;57411.34;;;-144.48;92.22
10688;BME280;5392;42.688;23.298;2023-03-20T05:20:00;57388.38;;;-144.48;91.13
10688;BME280;5392;42.688;23.298;2023-03-20T05:22:27;57390.47;;;-144.48;89.14
10688;BME280;5392;42.688;23.298;2023-03-20T05:24:53;57400.91;;;-144.48;88.00
10688;BME280;5392;42.688;23.298;2023-03-20T05:27:20;57403.00;;;-144.48;87.27
10688;BME280;5392;42.688;23.298;2023-03-20T05:29:47;57396.72;;;-144.48;87.60
10688;BME280;5392;42.688;23.298;2023-03-20T05:32:14;57380.03;;;-144.48;87.85
10688;BME280;5392;42.688;23.298;2023-03-20T05:34:40;57444.72;;;-144.48;87.76
10688;BME280;5392;42.688;23.298;2023-03-20T05:37:07;57354.97;;;-144.48;86.83
10688;BME280;5392;42.688;23.298;2023-03-20T05:39:34;57375.84;;;-144.48;86.39
10688;BME280;5392;42.688;23.298;2023-03-20T05:42:00;57384.19;;;-144.48;85.38
10688;BME280;5392;42.688;23.298;2023-03-20T05:44:27;57373.75;;;-144.48;82.58
10688;BME280;5392;42.688;23.298;2023-03-20T05:46:54;57377.94;;;-144.48;79.15
10688;BME280;5392;42.688;23.298;2023-03-20T05:49:20;57382.13;;;-144.48;73.35
10688;BME280;5392;42.688;23.298;2023-03-20T05:51:47;57382.13;;;-144.48;73.43
10688;BME280;5392;42.688;23.298;2023-03-20T05:54:14;57375.84;;;-144.48;73.51
10688;BME280;5392;42.688;23.298;2023-03-20T05:56:41;57373.75;;;-144.48;69.91
10688;BME280;5392;42.688;23.298;2023-03-20T05:59:08;57384.19;;;-144.48;66.06
10688;BME280;5392;42.688;23.298;2023-03-20T06:01:36;57357.06;;;-144.48;65.98
10688;BME280;5392;42.688;23.298;2023-03-20T06:04:02;57361.25;;;-144.48;65.47
10688;BME280;5392;42.688;23.298;2023-03-20T06:06:29;57373.75;;;-144.48;65.86
10688;BME280;5392;42.688;23.298;2023-03-20T06:08:56;57365.41;;;-144.48;64.12
10688;BME280;5392;42.688;23.298;2023-03-20T06:11:23;57388.38;;;-144.48;64.14
10688;BME280;5392;42.688;23.298;2023-03-20T06:13:49;57373.75;;;-144.48;63.87
10688;BME280;5392;42.688;23.298;2023-03-20T06:16:20;57396.72;;;-144.48;63.45
10688;BME280;5392;42.688;23.298;2023-03-20T06:18:47;57365.41;;;-144.48;63.31
10688;BME280;5392;42.688;23.298;2023-03-20T06:21:14;57380.03;;;-144.48;63.35
10688;BME280;5392;42.688;23.298;2023-03-20T06:23:41;57359.16;;;-144.48;64.37
10688;BME280;5392;42.688;23.298;2023-03-20T06:26:08;57417.59;;;-144.48;63.96
10688;BME280;5392;42.688;23.298;2023-03-20T06:28:34;57405.06;;;-144.48;63.66
10688;BME280;5392;42.688;23.298;2023-03-20T06:31:01;57363.31;;;-144.48;62.57
10688;BME280;5392;42.688;23.298;2023-03-20T06:33:28;57365.41;;;-144.48;62.12
10688;BME280;5392;42.688;23.298;2023-03-20T06:35:54;57371.69;;;-144.48;61.62
10688;BME280;5392;42.688;23.298;2023-03-20T06:38:21;57325.75;;;-144.48;60.85
10688;BME280;5392;42.688;23.298;2023-03-20T06:40:47;57375.84;;;-144.48;61.34
10688;BME280;5392;42.688;23.298;2023-03-20T06:43:14;57371.69;;;-144.48;60.69
10688;BME280;5392;42.688;23.298;2023-03-20T06:45:41;57373.75;;;-144.48;60.18
10688;BME280;5392;42.688;23.298;2023-03-20T06:48:08;57363.31;;;-144.48;61.43
10688;BME280;5392;42.688;23.298;2023-03-20T06:50:34;57384.19;;;-144.48;60.78
10688;BME280;5392;42.688;23.298;2023-03-20T06:53:02;57375.84;;;-144.48;59.98
10688;BME280;5392;42.688;23.298;2023-03-20T06:55:29;57334.09;;;-144.48;60.38
10688;BME280;5392;42.688;23.298;2023-03-20T06:57:56;57354.97;;;-144.48;60.00
10688;BME280;5392;42.688;23.298;2023-03-20T07:00:23;57363.31;;;-144.48;60.21
10688;BME280;5392;42.688;23.298;2023-03-20T07:02:50;57384.19;;;-144.48;59.19
10688;BME280;5392;42.688;23.298;2023-03-20T07:05:18;57359.16;;;-144.48;58.95
10688;BME280;5392;42.688;23.298;2023-03-20T07:07:45;57359.16;;;-144.48;59.23
10688;BME280;5392;42.688;23.298;2023-03-20T07:10:12;57363.31;;;-144.48;59.07
10688;BME280;5392;42.688;23.298;2023-03-20T07:12:39;57357.06;;;-144.48;58.83
10688;BME280;5392;42.688;23.298;2023-03-20T07:15:06;57390.47;;;-144.48;59.53
10688;BME280;5392;42.688;23.298;2023-03-20T07:17:32;57380.03;;;-144.48;59.95
10688;BME280;5392;42.688;23.298;2023-03-20T07:19:59;57361.25;;;-144.48;59.51
10688;BME280;5392;42.688;23.298;2023-03-20T07:22:27;57354.97;;;-144.48;59.85
10688;BME280;5392;42.688;23.298;2023-03-20T07:24:54;57369.59;;;-144.48;59.52
10688;BME280;5392;42.688;23.298;2023-03-20T07:27:21;57319.50;;;-144.48;58.17
10688;BME280;5392;42.688;23.298;2023-03-20T07:29:47;57344.53;;;-144.48;58.15
10688;BME280;5392;42.688;23.298;2023-03-20T07:32:14;57373.75;;;-144.48;58.50
10688;BME280;5392;42.688;23.298;2023-03-20T07:34:42;57357.06;;;-144.48;58.53
10688;BME280;5392;42.688;23.298;2023-03-20T07:37:09;57403.00;;;-144.48;58.56
10688;BME280;5392;42.688;23.298;2023-03-20T07:39:36;57407.16;;;-144.48;58.88
10688;BME280;5392;42.688;23.298;2023-03-20T07:42:03;57388.38;;;-144.48;58.72
10688;BME280;5392;42.688;23.298;2023-03-20T07:44:29;57359.16;;;-144.48;58.48
10688;BME280;5392;42.688;23.298;2023-03-20T07:46:56;57371.69;;;-144.48;58.39
10688;BME280;5392;42.688;23.298;2023-03-20T07:49:23;57319.50;;;-144.48;57.62
10688;BME280;5392;42.688;23.298;2023-03-20T07:51:50;57357.06;;;-144.48;57.11
10688;BME280;5392;42.688;23.298;2023-03-20T07:54:17;57369.59;;;-144.48;57.21
10688;BME280;5392;42.688;23.298;2023-03-20T07:56:43;57329.94;;;-144.48;57.17
10688;BME280;5392;42.688;23.298;2023-03-20T07:59:11;57365.41;;;-144.48;58.35
10688;BME280;5392;42.688;23.298;2023-03-20T08:01:39;57384.19;;;-144.48;58.81
10688;BME280;5392;42.688;23.298;2023-03-20T08:04:06;57363.31;;;-144.48;59.09
10688;BME280;5392;42.688;23.298;2023-03-20T08:06:33;57365.41;;;-144.48;58.07
10688;BME280;5392;42.688;23.298;2023-03-20T08:09:00;57334.09;;;-144.48;57.48
10688;BME280;5392;42.688;23.298;2023-03-20T08:11:27;57344.53;;;-144.48;57.47
10688;BME280;5392;42.688;23.298;2023-03-20T08:13:54;57346.63;;;-144.48;58.41
10688;BME280;5392;42.688;23.298;2023-03-20T08:16:21;57377.94;;;-144.48;57.72
10688;BME280;5392;42.688;23.298;2023-03-20T08:18:47;57357.06;;;-144.48;57.24
10688;BME280;5392;42.688;23.298;2023-03-20T08:21:16;57357.06;;;-144.48;57.19
10688;BME280;5392;42.688;23.298;2023-03-20T08:23:43;57363.31;;;-144.48;57.41
10688;BME280;5392;42.688;23.298;2023-03-20T08:26:09;57352.91;;;-144.48;57.34
10688;BME280;5392;42.688;23.298;2023-03-20T08:28:36;57369.59;;;-144.48;57.52
10688;BME280;5392;42.688;23.298;2023-03-20T08:31:13;57359.16;;;-144.48;57.45
10688;BME280;5392;42.688;23.298;2023-03-20T08:33:41;57334.09;;;-144.48;57.37
10688;BME280;5392;42.688;23.298;2023-03-20T08:36:08;57363.31;;;-144.48;57.16
10688;BME280;5392;42.688;23.298;2023-03-20T08:38:34;57357.06;;;-144.48;56.51
10688;BME280;5392;42.688;23.298;2023-03-20T08:41:02;57363.31;;;-144.48;56.67
10688;BME280;5392;42.688;23.298;2023-03-20T08:43:29;57338.28;;;-144.48;56.49
10688;BME280;5392;42.688;23.298;2023-03-20T08:45:55;57346.63;;;-144.48;57.72
10688;BME280;5392;42.688;23.298;2023-03-20T08:48:22;57359.16;;;-144.48;58.11
10688;BME280;5392;42.688;23.298;2023-03-20T08:50:49;57377.94;;;-144.48;57.55
10688;BME280;5392;42.688;23.298;2023-03-20T08:53:15;57390.47;;;-144.48;57.69
10688;BME280;5392;42.688;23.298;2023-03-20T08:55:52;57359.16;;;-144.48;58.83
10688;BME280;5392;42.688;23.298;2023-03-20T08:58:19;57375.84;;;-144.48;58.65
10688;BME280;5392;42.688;23.298;2023-03-20T09:00:46;57361.25;;;-144.48;58.56
10688;BME280;5392;42.688;23.298;2023-03-20T09:03:15;57365.41;;;-144.48;58.17
10688;BME280;5392;42.688;23.298;2023-03-20T09:05:44;57363.31;;;-144.48;58.66
10688;BME280;5392;42.688;23.298;2023-03-20T09:08:11;57354.97;;;-144.48;59.12
10688;BME280;5392;42.688;23.298;2023-03-20T09:10:37;57371.69;;;-144.48;59.49
10688;BME280;5392;42.688;23.298;2023-03-20T09:13:04;57384.19;;;-144.48;59.14
10688;BME280;5392;42.688;23.298;2023-03-20T09:15:51;57409.25;;;-144.48;59.54
10688;BME280;5392;42.688;23.298;2023-03-20T09:18:19;57386.28;;;-144.48;59.67
10688;BME280;5392;42.688;23.298;2023-03-20T09:20:47;57371.69;;;-144.48;59.28
10688;BME280;5392;42.688;23.298;2023-03-20T09:23:14;57417.59;;;-144.48;59.90
10688;BME280;5392;42.688;23.298;2023-03-20T09:25:41;57384.19;;;-144.48;59.90
10688;BME280;5392;42.688;23.298;2023-03-20T09:28:08;57382.13;;;-144.48;59.81
10688;BME280;5392;42.688;23.298;2023-03-20T09:30:35;57384.19;;;-144.48;59.31
10688;BME280;5392;42.688;23.298;2023-03-20T09:33:02;57367.50;;;-144.48;59.44
10688;BME280;5392;42.688;23.298;2023-03-20T09:35:29;57405.06;;;-144.48;58.75
10688;BME280;5392;42.688;23.298;2023-03-20T09:37:55;57388.38;;;-144.48;59.31
10688;BME280;5392;42.688;23.298;2023-03-20T09:43:23;57357.06;;;-144.48;59.85
10688;BME280;5392;42.688;23.298;2023-03-20T09:46:50;57367.50;;;-144.48;59.92
10688;BME280;5392;42.688;23.298;2023-03-20T09:54:48;57367.50;;;-144.48;58.02
10688;BME280;5392;42.688;23.298;2023-03-20T09:57:26;57380.03;;;-144.48;58.31
10688;BME280;5392;42.688;23.298;2023-03-20T10:00:02;57363.31;;;-144.48;58.37
10688;BME280;5392;42.688;23.298;2023-03-20T10:02:43;57384.19;;;-144.48;58.68
10688;BME280;5392;42.688;23.298;2023-03-20T10:05:24;57363.31;;;-144.48;59.54
10688;BME280;5392;42.688;23.298;2023-03-20T10:07:57;57377.94;;;-144.48;59.90
10688;BME280;5392;42.688;23.298;2023-03-20T10:10:36;57373.75;;;-144.48;59.13
10688;BME280;5392;42.688;23.298;2023-03-20T10:18:23;57359.16;;;-144.48;57.99
10688;BME280;5392;42.688;23.298;2023-03-20T10:20:56;57423.88;;;-144.48;57.87
10688;BME280;5392;42.688;23.298;2023-03-20T10:23:36;57388.38;;;-144.48;57.75
10688;BME280;5392;42.688;23.298;2023-03-20T10:26:11;57369.59;;;-144.48;58.07
10688;BME280;5392;42.688;23.298;2023-03-20T10:28:45;57380.03;;;-144.48;57.80
10688;BME280;5392;42.688;23.298;2023-03-20T10:33:58;57382.13;;;-144.48;57.65
10688;BME280;5392;42.688;23.298;2023-03-20T10:39:38;57338.28;;;-144.48;57.09
10688;BME280;5392;42.688;23.298;2023-03-20T10:42:19;57392.56;;;-144.48;57.08
10688;BME280;5392;42.688;23.298;2023-03-20T10:44:54;57384.19;;;-144.48;57.04
10688;BME280;5392;42.688;23.298;2023-03-20T10:47:24;57373.75;;;-144.48;57.28
10688;BME280;5392;42.688;23.298;2023-03-20T10:50:03;57359.16;;;-144.48;56.70
10688;BME280;5392;42.688;23.298;2023-03-20T10:52:34;57405.06;;;-144.48;56.58
10688;BME280;5392;42.688;23.298;2023-03-20T10:55:37;57344.53;;;-144.48;56.72
10688;BME280;5392;42.688;23.298;2023-03-20T10:58:11;57361.25;;;-144.48;56.48
10688;BME280;5392;42.688;23.298;2023-03-20T11:00:40;57354.97;;;-144.48;56.30
10688;BME280;5392;42.688;23.298;2023-03-20T11:03:20;57392.56;;;-144.48;56.13
10688;BME280;5392;42.688;23.298;2023-03-20T11:06:01;57384.19;;;-144.48;56.18
10688;BME280;5392;42.688;23.298;2023-03-20T11:08:40;57359.16;;;-144.48;56.00
10688;BME280;5392;42.688;23.298;2023-03-20T11:11:09;57384.19;;;-144.48;56.27
10688;BME280;5392;42.688;23.298;2023-03-20T11:13:42;57371.69;;;-144.48;56.38
10688;BME280;5392;42.688;23.298;2023-03-20T11:18:41;57350.81;;;-144.48;55.77
10688;BME280;5392;42.688;23.298;2023-03-20T11:21:16;57342.47;;;-144.48;55.49
10688;BME280;5392;42.688;23.298;2023-03-20T11:23:43;57332.03;;;-144.48;55.16
10688;BME280;5392;42.688;23.298;2023-03-20T11:26:13;57380.03;;;-144.48;55.62
10688;BME280;5392;42.688;23.298;2023-03-20T11:33:43;57313.22;;;-144.48;55.16
10688;BME280;5392;42.688;23.298;2023-03-20T11:36:31;57346.63;;;-144.48;55.12
10688;BME280;5392;42.688;23.298;2023-03-20T11:39:27;57340.38;;;-144.48;54.80
10688;BME280;5392;42.688;23.298;2023-03-20T11:41:57;57369.59;;;-144.48;54.81
10688;BME280;5392;42.688;23.298;2023-03-20T11:49:25;57354.97;;;-144.48;54.81
10688;BME280;5392;42.688;23.298;2023-03-20T11:51:59;57359.16;;;-144.48;54.88
10688;BME280;5392;42.688;23.298;2023-03-20T11:54:28;57352.91;;;-144.48;54.39
10688;BME280;5392;42.688;23.298;2023-03-20T11:56:59;57315.31;;;-144.48;54.13
10688;BME280;5392;42.688;23.298;2023-03-20T11:59:34;57342.47;;;-144.48;54.52
10688;BME280;5392;42.688;23.298;2023-03-20T12:02:17;57373.75;;;-144.48;54.31
10688;BME280;5392;42.688;23.298;2023-03-20T12:04:45;57334.09;;;-144.48;53.84
10688;BME280;5392;42.688;23.298;2023-03-20T12:07:15;57359.16;;;-144.48;53.43
10688;BME280;5392;42.688;23.298;2023-03-20T12:09:48;57350.81;;;-144.48;53.45
10688;BME280;5392;42.688;23.298;2023-03-20T12:12:43;57334.09;;;-144.48;53.50
10688;BME280;5392;42.688;23.298;2023-03-20T12:17:53;57340.38;;;-144.48;53.06
10688;BME280;5392;42.688;23.298;2023-03-20T12:20:23;57382.13;;;-144.48;52.72
10688;BME280;5392;42.688;23.298;2023-03-20T12:22:57;57313.22;;;-144.48;52.50
10688;BME280;5392;42.688;23.298;2023-03-20T12:31:14;57342.47;;;-144.48;52.11
10688;BME280;5392;42.688;23.298;2023-03-20T12:33:57;57309.06;;;-144.48;52.05
10688;BME280;5392;42.688;23.298;2023-03-20T12:36:35;57346.63;;;-144.48;51.77
10688;BME280;5392;42.688;23.298;2023-03-20T12:39:10;57367.50;;;-144.48;51.91
10688;BME280;5392;42.688;23.298;2023-03-20T12:46:55;57348.72;;;-144.48;51.13
10688;BME280;5392;42.688;23.298;2023-03-20T12:49:45;57350.81;;;-144.48;51.01
10688;BME280;5392;42.688;23.298;2023-03-20T12:58:18;57329.94;;;-144.48;51.13
10688;BME280;5392;42.688;23.298;2023-03-20T13:01:19;57369.59;;;-144.48;51.11
10688;BME280;5392;42.688;23.298;2023-03-20T13:03:58;57325.75;;;-144.48;50.59
10688;BME280;5392;42.688;23.298;2023-03-20T13:23:30;57359.16;;;-144.48;50.67
10688;BME280;5392;42.688;23.298;2023-03-20T13:26:27;57315.31;;;-144.48;50.75
10688;BME280;5392;42.688;23.298;2023-03-20T13:37:12;57375.84;;;-144.48;50.78
10688;BME280;5392;42.688;23.298;2023-03-20T13:45:41;57344.53;;;-144.48;50.51
10688;BME280;5392;42.688;23.298;2023-03-20T13:48:40;57375.84;;;-144.48;50.46
10688;BME280;5392;42.688;23.298;2023-03-20T13:51:34;57369.59;;;-144.48;50.08
10688;BME280;5392;42.688;23.298;2023-03-20T13:57:44;57323.66;;;-144.48;50.46
10688;BME280;5392;42.688;23.298;2023-03-20T14:00:31;57321.59;;;-144.48;50.18
10688;BME280;5392;42.688;23.298;2023-03-20T14:03:13;57338.28;;;-144.48;50.14
10688;BME280;5392;42.688;23.298;2023-03-20T14:05:43;57334.09;;;-144.48;50.46
10688;BME280;5392;42.688;23.298;2023-03-20T14:14:01;57327.84;;;-144.48;49.75
10688;BME280;5392;42.688;23.298;2023-03-20T14:16:29;57298.63;;;-144.48;49.54
10688;BME280;5392;42.688;23.298;2023-03-20T14:19:20;57329.94;;;-144.48;49.65
10688;BME280;5392;42.688;23.298;2023-03-20T14:21:53;57340.38;;;-144.48;49.58
10688;BME280;5392;42.688;23.298;2023-03-20T14:24:22;57309.06;;;-144.48;49.79
10688;BME280;5392;42.688;23.298;2023-03-20T14:26:54;57317.41;;;-144.48;50.12
10688;BME280;5392;42.688;23.298;2023-03-20T14:32:21;57298.63;;;-144.48;50.15
10688;BME280;5392;42.688;23.298;2023-03-20T14:34:53;57323.66;;;-144.48;50.31
10688;BME280;5392;42.688;23.298;2023-03-20T14:37:44;57384.19;;;-144.48;49.91
10688;BME280;5392;42.688;23.298;2023-03-20T14:40:27;57313.22;;;-144.48;49.33
10688;BME280;5392;42.688;23.298;2023-03-20T14:43:00;57348.72;;;-144.48;49.53
10688;BME280;5392;42.688;23.298;2023-03-20T14:45:50;57396.72;;;-144.48;49.61
10688;BME280;5392;42.688;23.298;2023-03-20T14:48:30;57367.50;;;-144.48;49.37
10688;BME280;5392;42.688;23.298;2023-03-20T14:53:31;57352.91;;;-144.48;49.80
10688;BME280;5392;42.688;23.298;2023-03-20T14:56:12;57346.63;;;-144.48;49.94
10688;BME280;5392;42.688;23.298;2023-03-20T14:58:55;57371.69;;;-144.48;49.90
10688;BME280;5392;42.688;23.298;2023-03-20T15:01:26;57348.72;;;-144.48;50.17
10688;BME280;5392;42.688;23.298;2023-03-20T15:04:04;57300.72;;;-144.48;50.38
10688;BME280;5392;42.688;23.298;2023-03-20T15:06:33;57344.53;;;-144.48;50.34
10688;BME280;5392;42.688;23.298;2023-03-20T15:09:07;57348.72;;;-144.48;50.47
10688;BME280;5392;42.688;23.298;2023-03-20T15:11:34;57359.16;;;-144.48;50.59
10688;BME280;5392;42.688;23.298;2023-03-20T15:14:04;57359.16;;;-144.48;50.74